Time;durP1;ratioP1;P1;durP2;ratioP2;P2;SDS_P1;SDS_P2;PMS_P1;PMS_P2;Temp;Humidity;BMP_temperature;BMP_pressure;BME280_temperature;BME280_humidity;BME280_pressure;Samples;Min_cycle;Max_cycle;Signal;HPM_P1;HPM_P2
2022/10/31 00:00:58;;;;;;;0.10;0.10;;;13.10;99.90;;;;;;5030200;28;20278;-86
2022/10/31 00:03:24;;;;;;;0.10;0.10;;;13.20;99.90;;;;;;5029498;28;20190;-85
2022/10/31 00:05:49;;;;;;;0.10;0.10;;;13.20;99.90;;;;;;5024349;28;20465;-86
2022/10/31 00:08:16;;;;;;;0.10;0.10;;;13.10;99.90;;;;;;5026391;28;20674;-86
2022/10/31 00:10:43;;;;;;;0.10;0.10;;;13.10;99.90;;;;;;5030234;28;20544;-85
2022/10/31 00:13:09;;;;;;;0.10;0.10;;;13.00;99.90;;;;;;5015051;28;20445;-86
2022/10/31 00:15:37;;;;;;;0.10;0.10;;;13.10;99.90;;;;;;5024988;28;20635;-85
2022/10/31 00:18:04;;;;;;;0.10;0.10;;;12.90;99.90;;;;;;5034094;28;20438;-88
2022/10/31 00:20:29;;;;;;;0.10;0.10;;;13.00;99.90;;;;;;5022954;28;20556;-85
2022/10/31 00:22:59;;;;;;;0.10;0.10;;;12.90;99.90;;;;;;5015968;28;20993;-86
2022/10/31 00:25:26;;;;;;;0.10;0.10;;;13.10;99.90;;;;;;5018041;28;20285;-85
2022/10/31 00:27:52;;;;;;;0.10;0.10;;;13.00;99.90;;;;;;5025784;28;20551;-86
2022/10/31 00:30:17;;;;;;;0.10;0.10;;;12.90;99.90;;;;;;5026049;28;20541;-85
2022/10/31 00:32:43;;;;;;;0.10;0.10;;;12.80;99.90;;;;;;5029859;28;20536;-85
2022/10/31 00:35:08;;;;;;;0.10;0.10;;;12.80;99.90;;;;;;5010843;28;20187;-86
2022/10/31 00:37:34;;;;;;;0.10;0.10;;;12.90;99.90;;;;;;5015878;28;20192;-86
2022/10/31 00:39:59;;;;;;;0.10;0.10;;;12.80;99.90;;;;;;5013753;28;20205;-85
2022/10/31 00:42:25;;;;;;;0.10;0.10;;;12.80;99.90;;;;;;5021491;28;20647;-86
2022/10/31 00:44:50;;;;;;;0.10;0.10;;;12.60;99.90;;;;;;5028889;28;20209;-85
2022/10/31 00:47:16;;;;;;;0.10;0.10;;;12.50;99.90;;;;;;5031135;28;20245;-85
2022/10/31 00:49:41;;;;;;;0.10;0.10;;;12.40;99.90;;;;;;5035212;28;20645;-86
2022/10/31 00:52:07;;;;;;;0.10;0.10;;;12.30;99.90;;;;;;5030712;28;20188;-85
2022/10/31 00:54:32;;;;;;;0.10;0.10;;;12.50;99.90;;;;;;5029571;28;20237;-85
2022/10/31 00:56:58;;;;;;;0.10;0.10;;;12.40;99.90;;;;;;5039149;28;20195;-85
2022/10/31 00:59:23;;;;;;;0.10;0.10;;;12.60;99.90;;;;;;5014944;28;20230;-85
2022/10/31 01:01:49;;;;;;;0.10;0.10;;;12.70;99.90;;;;;;5016472;28;20188;-87
2022/10/31 01:04:14;;;;;;;0.10;0.10;;;12.80;99.90;;;;;;5021164;28;20638;-86
2022/10/31 01:06:40;;;;;;;0.10;0.10;;;12.90;99.90;;;;;;5023103;28;20238;-86
2022/10/31 01:09:05;;;;;;;0.10;0.10;;;12.70;99.90;;;;;;5013564;28;20849;-86
2022/10/31 01:11:31;;;;;;;0.10;0.10;;;12.80;99.90;;;;;;5020111;28;20199;-85
2022/10/31 01:13:56;;;;;;;0.10;0.10;;;12.80;99.90;;;;;;5027224;28;20487;-86
2022/10/31 01:16:24;;;;;;;0.10;0.10;;;12.80;99.90;;;;;;5004723;28;20191;-85
2022/10/31 01:18:50;;;;;;;0.10;0.10;;;12.60;99.90;;;;;;5030896;28;20195;-86
2022/10/31 01:21:19;;;;;;;0.10;0.10;;;12.80;99.90;;;;;;5019993;28;20993;-86
2022/10/31 01:23:45;;;;;;;0.10;0.10;;;12.80;99.90;;;;;;5036364;28;20449;-86
2022/10/31 01:26:17;;;;;;;0.10;0.10;;;12.80;99.90;;;;;;5005797;28;20474;-86
2022/10/31 01:28:51;;;;;;;0.10;0.10;;;12.80;99.90;;;;;;5016807;28;20552;-86
2022/10/31 01:31:18;;;;;;;0.10;0.10;;;12.70;99.90;;;;;;5018960;28;20589;-85
2022/10/31 01:33:44;;;;;;;0.10;0.10;;;12.80;99.90;;;;;;5025451;28;20446;-86
2022/10/31 01:36:34;;;;;;;0.10;0.10;;;12.80;99.90;;;;;;5016074;28;20533;-85
2022/10/31 01:39:10;;;;;;;0.10;0.10;;;12.70;99.90;;;;;;4995834;28;20188;-85
2022/10/31 01:41:39;;;;;;;0.10;0.10;;;12.60;99.90;;;;;;5019149;28;20486;-85
2022/10/31 01:44:14;;;;;;;0.10;0.10;;;12.50;99.90;;;;;;5022274;28;20444;-85
2022/10/31 01:46:52;;;;;;;0.10;0.10;;;12.60;99.90;;;;;;5004382;28;20481;-85
2022/10/31 01:49:33;;;;;;;0.10;0.10;;;12.80;99.90;;;;;;5028207;28;20443;-86
2022/10/31 01:52:20;;;;;;;0.20;0.20;;;12.90;99.90;;;;;;5017498;28;20567;-87
2022/10/31 01:54:51;;;;;;;0.10;0.10;;;13.00;99.90;;;;;;5003288;28;20450;-86
2022/10/31 01:57:18;;;;;;;0.10;0.10;;;13.20;99.90;;;;;;5016456;28;20451;-87
2022/10/31 01:59:49;;;;;;;0.10;0.10;;;13.20;99.90;;;;;;5022937;28;20449;-85
2022/10/31 02:02:15;;;;;;;0.10;0.10;;;13.30;99.90;;;;;;5013543;28;20435;-88
2022/10/31 02:04:42;;;;;;;0.10;0.10;;;13.30;99.90;;;;;;5020690;28;20442;-88
2022/10/31 02:07:13;;;;;;;0.10;0.10;;;13.30;99.90;;;;;;5014890;28;20493;-86
2022/10/31 02:09:40;;;;;;;0.10;0.10;;;13.30;99.90;;;;;;5025818;28;20519;-86
2022/10/31 02:12:08;;;;;;;0.10;0.10;;;13.30;99.90;;;;;;5035991;28;21289;-85
2022/10/31 02:14:35;;;;;;;0.10;0.10;;;13.30;99.90;;;;;;5026334;28;20442;-87
2022/10/31 02:17:00;;;;;;;0.10;0.10;;;13.30;99.90;;;;;;5025027;28;20442;-86
2022/10/31 02:19:42;;;;;;;0.10;0.10;;;13.30;99.90;;;;;;5025395;28;21029;-85
2022/10/31 02:22:35;;;;;;;0.20;0.20;;;13.30;99.90;;;;;;5027073;28;20190;-86
2022/10/31 02:25:31;;;;;;;0.10;0.10;;;13.30;99.90;;;;;;5038870;28;21003;-86
2022/10/31 02:28:27;;;;;;;0.10;0.10;;;13.30;99.90;;;;;;5051538;28;20477;-86
2022/10/31 02:31:30;;;;;;;0.10;0.10;;;13.10;99.90;;;;;;5016627;28;20442;-85
2022/10/31 02:34:01;;;;;;;0.20;0.20;;;13.10;99.90;;;;;;5015669;28;21004;-85
2022/10/31 02:36:48;;;;;;;0.10;0.10;;;13.10;99.90;;;;;;5020249;28;20566;-84
2022/10/31 02:39:21;;;;;;;0.10;0.10;;;13.00;99.90;;;;;;5006795;28;20461;-85
2022/10/31 02:42:05;;;;;;;0.10;0.10;;;13.00;99.90;;;;;;5032159;28;20541;-85
2022/10/31 02:45:18;;;;;;;0.10;0.10;;;13.00;99.90;;;;;;5030921;28;20505;-87
2022/10/31 02:47:47;;;;;;;0.10;0.10;;;13.00;99.90;;;;;;4926149;29;20462;-85
2022/10/31 02:50:21;;;;;;;0.10;0.10;;;13.00;99.90;;;;;;5006346;28;20442;-86
2022/10/31 02:52:51;;;;;;;0.10;0.10;;;13.00;99.90;;;;;;5015753;28;20447;-85
2022/10/31 02:55:22;;;;;;;0.10;0.10;;;13.00;99.90;;;;;;5022074;28;20461;-86
2022/10/31 02:57:51;;;;;;;0.10;0.10;;;13.00;99.90;;;;;;5011702;28;20825;-86
2022/10/31 03:00:16;;;;;;;0.10;0.10;;;13.00;99.90;;;;;;5027624;28;20519;-85
2022/10/31 03:03:03;;;;;;;0.10;0.10;;;13.00;99.90;;;;;;5028760;28;20445;-86
2022/10/31 03:05:40;;;;;;;0.10;0.10;;;13.00;99.90;;;;;;5022526;28;20251;-86
2022/10/31 03:08:24;;;;;;;0.10;0.10;;;12.90;99.90;;;;;;5024756;28;20496;-85
2022/10/31 03:11:01;;;;;;;0.10;0.10;;;12.90;99.90;;;;;;5011584;28;20452;-86
2022/10/31 03:13:57;;;;;;;0.10;0.10;;;13.00;99.90;;;;;;5018044;28;20437;-86
2022/10/31 03:16:50;;;;;;;0.10;0.10;;;12.90;99.90;;;;;;5028233;28;20450;-85
2022/10/31 03:19:29;;;;;;;0.10;0.10;;;12.90;99.90;;;;;;5036579;28;20449;-85
2022/10/31 03:22:07;;;;;;;0.10;0.10;;;12.90;99.90;;;;;;5015358;28;20496;-85
2022/10/31 03:24:38;;;;;;;0.10;0.10;;;12.90;99.90;;;;;;5032428;28;20450;-85
2022/10/31 03:27:07;;;;;;;0.10;0.10;;;12.90;99.90;;;;;;5029993;28;20478;-85
2022/10/31 03:29:36;;;;;;;0.10;0.10;;;12.90;99.90;;;;;;5024119;28;20453;-86
2022/10/31 03:32:10;;;;;;;0.10;0.10;;;12.90;99.90;;;;;;5027495;28;20502;-85
2022/10/31 03:34:38;;;;;;;0.10;0.10;;;12.90;99.90;;;;;;5022879;28;20453;-86
2022/10/31 03:37:07;;;;;;;0.10;0.10;;;12.90;99.90;;;;;;5027870;28;20442;-85
2022/10/31 03:39:34;;;;;;;0.10;0.10;;;12.90;99.90;;;;;;5011078;28;20447;-86
2022/10/31 03:42:06;;;;;;;0.10;0.10;;;12.90;99.90;;;;;;5010846;28;20448;-85
2022/10/31 03:44:32;;;;;;;0.10;0.10;;;12.90;99.90;;;;;;5029177;28;20450;-87
2022/10/31 03:46:59;;;;;;;0.10;0.10;;;12.80;99.90;;;;;;5023326;28;20511;-86
2022/10/31 03:49:25;;;;;;;0.10;0.10;;;12.80;99.90;;;;;;5019216;28;20805;-86
2022/10/31 03:52:02;;;;;;;0.10;0.10;;;12.90;99.90;;;;;;5024631;28;20446;-85
2022/10/31 03:54:38;;;;;;;0.10;0.10;;;12.90;99.90;;;;;;5043648;28;20190;-85
2022/10/31 03:57:09;;;;;;;0.10;0.10;;;12.90;99.90;;;;;;5023216;28;20433;-85
2022/10/31 03:59:44;;;;;;;0.10;0.10;;;12.90;99.90;;;;;;5001904;28;20799;-85
2022/10/31 04:02:18;;;;;;;0.10;0.10;;;12.90;99.90;;;;;;5023404;28;20446;-87
2022/10/31 04:04:45;;;;;;;0.10;0.10;;;12.90;99.90;;;;;;5021672;28;20438;-85
2022/10/31 04:07:11;;;;;;;0.10;0.10;;;12.90;99.90;;;;;;5007357;28;21780;-87
2022/10/31 04:09:41;;;;;;;0.10;0.10;;;13.00;99.90;;;;;;5025303;28;20448;-85
2022/10/31 04:12:08;;;;;;;0.10;0.10;;;12.90;99.90;;;;;;5028060;28;20462;-85
2022/10/31 04:14:38;;;;;;;0.10;0.10;;;12.90;99.90;;;;;;5010952;28;20466;-85
2022/10/31 04:17:06;;;;;;;0.10;0.10;;;12.90;99.90;;;;;;5026596;28;20449;-86
2022/10/31 04:19:33;;;;;;;0.10;0.10;;;12.90;99.90;;;;;;5007267;28;20447;-86
2022/10/31 04:21:58;;;;;;;0.10;0.10;;;12.90;99.90;;;;;;5013954;28;20852;-85
2022/10/31 04:24:24;;;;;;;0.10;0.10;;;12.90;99.90;;;;;;5026325;28;20438;-85
2022/10/31 04:26:49;;;;;;;0.10;0.10;;;12.90;99.90;;;;;;5009664;28;20273;-86
2022/10/31 04:29:15;;;;;;;0.10;0.10;;;12.90;99.90;;;;;;5010122;28;20272;-87
2022/10/31 04:31:40;;;;;;;0.10;0.10;;;12.90;99.90;;;;;;5022135;28;20260;-86
2022/10/31 04:34:07;;;;;;;0.10;0.10;;;12.90;99.90;;;;;;5004759;28;20188;-86
2022/10/31 04:36:32;;;;;;;0.10;0.10;;;13.00;99.90;;;;;;5019210;28;20254;-85
2022/10/31 04:38:58;;;;;;;0.10;0.10;;;13.00;99.90;;;;;;5031980;28;20932;-86
2022/10/31 04:41:23;;;;;;;0.10;0.10;;;13.00;99.90;;;;;;5018099;28;20183;-86
2022/10/31 04:43:49;;;;;;;0.10;0.10;;;13.00;99.90;;;;;;5022733;28;20184;-85
2022/10/31 04:46:14;;;;;;;0.10;0.10;;;13.00;99.90;;;;;;5022759;28;20315;-86
2022/10/31 04:48:40;;;;;;;0.10;0.10;;;13.00;99.90;;;;;;5028702;28;20188;-85
2022/10/31 04:51:05;;;;;;;0.10;0.10;;;13.00;99.90;;;;;;5019998;28;20202;-85
2022/10/31 04:53:31;;;;;;;0.10;0.10;;;13.00;99.90;;;;;;5031406;28;20217;-86
2022/10/31 04:55:59;;;;;;;0.10;0.10;;;12.90;99.90;;;;;;5010509;28;20190;-85
2022/10/31 04:58:25;;;;;;;0.10;0.10;;;12.90;99.90;;;;;;5020010;28;20206;-85
2022/10/31 05:00:54;;;;;;;0.10;0.10;;;12.90;99.90;;;;;;5018636;28;20456;-87
2022/10/31 05:03:20;;;;;;;0.10;0.10;;;12.90;99.90;;;;;;5024284;28;20183;-85
2022/10/31 05:05:46;;;;;;;0.10;0.10;;;12.90;99.90;;;;;;5024274;28;20477;-85
2022/10/31 05:08:11;;;;;;;0.10;0.10;;;12.90;99.90;;;;;;5014785;28;20223;-84
2022/10/31 05:10:37;;;;;;;0.10;0.10;;;12.80;99.90;;;;;;5028597;28;20200;-85
2022/10/31 05:13:03;;;;;;;0.10;0.10;;;12.90;99.90;;;;;;5035003;28;20175;-84
2022/10/31 05:15:29;;;;;;;0.10;0.10;;;12.90;99.90;;;;;;5029841;28;20184;-85
2022/10/31 05:17:55;;;;;;;0.10;0.10;;;12.90;99.90;;;;;;5005521;28;20547;-85
2022/10/31 05:20:24;;;;;;;0.10;0.10;;;12.90;99.90;;;;;;5003852;28;20454;-86
2022/10/31 05:22:52;;;;;;;0.10;0.10;;;12.90;99.90;;;;;;5007103;28;20954;-86
2022/10/31 05:25:21;;;;;;;0.10;0.10;;;12.90;99.90;;;;;;5007888;28;20451;-85
2022/10/31 05:27:48;;;;;;;0.10;0.10;;;12.90;99.90;;;;;;5020982;28;21055;-85
2022/10/31 05:30:16;;;;;;;0.10;0.10;;;12.90;99.90;;;;;;5008107;28;20434;-85
2022/10/31 05:32:46;;;;;;;0.10;0.10;;;12.90;99.90;;;;;;5011748;28;20442;-85
2022/10/31 05:35:20;;;;;;;0.10;0.10;;;12.90;99.90;;;;;;5011664;28;20970;-85
2022/10/31 05:37:46;;;;;;;0.10;0.10;;;12.90;99.90;;;;;;5008266;28;20455;-85
2022/10/31 05:40:14;;;;;;;0.10;0.10;;;12.90;99.90;;;;;;5026019;28;20443;-85
2022/10/31 05:42:40;;;;;;;0.10;0.10;;;13.00;99.90;;;;;;5028176;28;20748;-86
2022/10/31 05:45:08;;;;;;;0.10;0.10;;;13.00;99.90;;;;;;5032629;28;21058;-85
2022/10/31 05:47:33;;;;;;;0.10;0.10;;;13.00;99.90;;;;;;5015784;28;20485;-85
2022/10/31 05:49:59;;;;;;;0.10;0.10;;;13.00;99.90;;;;;;5004598;28;20438;-85
2022/10/31 05:52:24;;;;;;;0.10;0.10;;;13.00;99.90;;;;;;5004017;28;20241;-85
2022/10/31 05:54:50;;;;;;;0.10;0.10;;;12.90;99.90;;;;;;5014636;28;20615;-85
2022/10/31 05:57:15;;;;;;;0.10;0.10;;;12.90;99.90;;;;;;5020102;28;20245;-87
2022/10/31 05:59:41;;;;;;;0.10;0.10;;;12.90;99.90;;;;;;5023478;28;20736;-85
2022/10/31 06:02:06;;;;;;;0.10;0.10;;;12.90;99.90;;;;;;5017714;28;20262;-85
2022/10/31 06:04:32;;;;;;;0.10;0.10;;;12.80;99.90;;;;;;5023222;28;20183;-87
2022/10/31 06:06:57;;;;;;;0.10;0.10;;;12.80;99.90;;;;;;5023574;28;20272;-87
2022/10/31 06:09:23;;;;;;;0.10;0.10;;;12.80;99.90;;;;;;5021985;28;20274;-87
2022/10/31 06:11:49;;;;;;;0.10;0.10;;;12.80;99.90;;;;;;5018700;28;20183;-85
2022/10/31 06:14:14;;;;;;;0.10;0.10;;;12.70;99.90;;;;;;5010774;28;20179;-85
2022/10/31 06:16:39;;;;;;;0.10;0.10;;;12.70;99.90;;;;;;5002188;28;20180;-85
2022/10/31 06:19:05;;;;;;;0.10;0.10;;;12.60;99.90;;;;;;5025740;28;20777;-83
2022/10/31 06:21:31;;;;;;;0.10;0.10;;;12.60;99.90;;;;;;5018426;28;20267;-85
2022/10/31 06:23:56;;;;;;;0.10;0.10;;;12.50;99.90;;;;;;5025068;28;20202;-84
2022/10/31 06:26:22;;;;;;;0.10;0.10;;;12.60;99.90;;;;;;5010765;28;20615;-85
2022/10/31 06:28:47;;;;;;;0.10;0.10;;;12.60;99.90;;;;;;5018039;28;20195;-86
2022/10/31 06:31:13;;;;;;;0.10;0.10;;;12.60;99.90;;;;;;5013480;28;20962;-87
2022/10/31 06:33:41;;;;;;;0.10;0.10;;;12.60;99.90;;;;;;5018662;28;20189;-86
2022/10/31 06:36:07;;;;;;;0.10;0.10;;;12.70;99.90;;;;;;5011409;28;20212;-85
2022/10/31 06:38:32;;;;;;;0.10;0.10;;;12.70;99.90;;;;;;5022495;28;20536;-85
2022/10/31 06:41:01;;;;;;;0.10;0.10;;;12.70;99.90;;;;;;5035172;28;20560;-85
2022/10/31 06:43:26;;;;;;;0.10;0.10;;;12.70;99.90;;;;;;5028704;28;20186;-86
2022/10/31 06:45:53;;;;;;;0.10;0.10;;;12.70;99.90;;;;;;5004165;28;20502;-85
2022/10/31 06:48:18;;;;;;;0.10;0.10;;;12.70;99.90;;;;;;5013337;28;20431;-86
2022/10/31 06:50:44;;;;;;;0.10;0.10;;;12.80;99.90;;;;;;5017746;28;20612;-85
2022/10/31 06:53:10;;;;;;;0.17;0.17;;;12.70;99.90;;;;;;5006319;28;20266;-86
2022/10/31 06:55:35;;;;;;;0.10;0.10;;;12.80;99.90;;;;;;5017610;28;20197;-86
2022/10/31 06:58:01;;;;;;;0.10;0.10;;;12.80;99.90;;;;;;5012557;28;20425;-85
2022/10/31 07:00:28;;;;;;;0.10;0.10;;;12.80;99.90;;;;;;5018973;28;20203;-87
2022/10/31 07:02:55;;;;;;;0.10;0.10;;;12.80;99.90;;;;;;5030516;28;20187;-85
2022/10/31 07:05:20;;;;;;;0.20;0.20;;;12.80;99.90;;;;;;5019771;28;20441;-86
2022/10/31 07:07:46;;;;;;;0.10;0.10;;;12.70;99.90;;;;;;5015440;28;20482;-85
2022/10/31 07:10:11;;;;;;;0.10;0.10;;;12.70;99.90;;;;;;5008090;28;20176;-86
2022/10/31 07:12:36;;;;;;;0.10;0.10;;;12.70;99.90;;;;;;5032144;28;20180;-86
2022/10/31 07:15:03;;;;;;;0.10;0.10;;;12.80;99.90;;;;;;5028208;28;20192;-85
2022/10/31 07:17:29;;;;;;;0.10;0.10;;;12.80;99.90;;;;;;5012518;28;21724;-86
2022/10/31 07:19:54;;;;;;;0.10;0.10;;;12.70;99.90;;;;;;5029790;28;20438;-86
2022/10/31 07:22:20;;;;;;;0.10;0.10;;;12.70;99.90;;;;;;5004202;28;20866;-88
2022/10/31 07:24:45;;;;;;;0.10;0.10;;;12.70;99.90;;;;;;5024215;28;20188;-89
2022/10/31 07:27:11;;;;;;;0.10;0.10;;;12.80;99.90;;;;;;5022166;28;20226;-87
2022/10/31 07:29:36;;;;;;;0.10;0.10;;;12.90;99.90;;;;;;5022676;28;20271;-89
2022/10/31 07:32:02;;;;;;;0.10;0.10;;;12.90;99.90;;;;;;5024627;28;20209;-88
2022/10/31 07:34:27;;;;;;;0.10;0.10;;;12.90;99.90;;;;;;5014258;28;20198;-89
2022/10/31 07:36:54;;;;;;;0.10;0.10;;;12.90;99.90;;;;;;5015002;28;20183;-85
2022/10/31 07:39:19;;;;;;;0.10;0.10;;;13.00;99.90;;;;;;5024992;28;20859;-84
2022/10/31 07:41:44;;;;;;;0.10;0.10;;;13.00;99.90;;;;;;5020061;28;20535;-86
2022/10/31 07:44:10;;;;;;;0.10;0.10;;;13.00;99.90;;;;;;5023226;28;20218;-86
2022/10/31 07:46:35;;;;;;;0.10;0.10;;;13.00;99.90;;;;;;5021488;28;20230;-84
2022/10/31 07:49:01;;;;;;;0.10;0.10;;;13.00;99.90;;;;;;5012305;28;20175;-85
2022/10/31 07:51:27;;;;;;;0.10;0.10;;;13.10;99.90;;;;;;5041613;28;20187;-86
2022/10/31 07:53:52;;;;;;;0.10;0.10;;;13.00;99.90;;;;;;5008399;28;20179;-85
2022/10/31 07:56:17;;;;;;;0.10;0.10;;;13.10;99.90;;;;;;5028081;28;20195;-85
2022/10/31 07:58:43;;;;;;;0.10;0.10;;;13.10;99.90;;;;;;5015607;28;20211;-84
2022/10/31 08:01:08;;;;;;;0.10;0.10;;;13.00;99.90;;;;;;5033966;28;20191;-86
2022/10/31 08:03:34;;;;;;;0.10;0.10;;;12.90;99.90;;;;;;5007702;28;20180;-85
2022/10/31 08:05:59;;;;;;;0.10;0.10;;;12.90;99.90;;;;;;5023911;28;20309;-86
2022/10/31 08:08:27;;;;;;;0.10;0.10;;;12.90;99.90;;;;;;5014018;28;20304;-85
2022/10/31 08:10:53;;;;;;;0.10;0.10;;;12.90;99.90;;;;;;5012510;28;20185;-84
2022/10/31 08:13:19;;;;;;;0.10;0.10;;;12.90;99.90;;;;;;5018155;28;20805;-84
2022/10/31 08:15:49;;;;;;;0.10;0.10;;;13.00;99.90;;;;;;5000512;28;20179;-84
2022/10/31 08:18:15;;;;;;;0.10;0.10;;;13.00;99.90;;;;;;5029123;28;20172;-85
2022/10/31 08:20:42;;;;;;;0.10;0.10;;;13.00;99.90;;;;;;4999725;28;20495;-85
2022/10/31 08:23:10;;;;;;;0.17;0.17;;;12.90;99.90;;;;;;5029387;28;20481;-83
2022/10/31 08:25:35;;;;;;;0.10;0.10;;;13.00;99.90;;;;;;5005787;28;20446;-84
2022/10/31 08:28:02;;;;;;;0.10;0.10;;;12.90;99.90;;;;;;5025990;28;20462;-85
2022/10/31 08:30:30;;;;;;;0.10;0.10;;;12.90;99.90;;;;;;5017976;28;20280;-84
2022/10/31 08:33:04;;;;;;;0.10;0.10;;;12.90;99.90;;;;;;5006864;28;20461;-85
2022/10/31 08:35:31;;;;;;;0.10;0.10;;;13.00;99.90;;;;;;5015621;28;20507;-83
2022/10/31 08:37:57;;;;;;;0.10;0.10;;;13.00;99.90;;;;;;5006277;28;20447;-84
2022/10/31 08:40:23;;;;;;;0.10;0.10;;;13.00;99.90;;;;;;5023361;28;20450;-84
2022/10/31 08:43:04;;;;;;;0.10;0.10;;;12.90;99.90;;;;;;5019039;28;20435;-85
2022/10/31 08:45:31;;;;;;;0.10;0.10;;;12.70;99.90;;;;;;5004123;28;21004;-86
2022/10/31 08:48:02;;;;;;;0.10;0.10;;;12.70;99.90;;;;;;5034430;28;20510;-87
2022/10/31 08:50:29;;;;;;;0.10;0.10;;;12.70;99.90;;;;;;5012244;28;20503;-85
2022/10/31 08:53:20;;;;;;;0.10;0.10;;;12.80;99.90;;;;;;5006487;28;20451;-86
2022/10/31 08:55:46;;;;;;;0.10;0.10;;;12.90;99.90;;;;;;5020380;28;20456;-92
2022/10/31 08:58:15;;;;;;;0.10;0.10;;;12.90;99.90;;;;;;4999471;28;20447;-90
2022/10/31 09:00:41;;;;;;;0.10;0.10;;;12.90;99.90;;;;;;5003756;28;20454;-90
2022/10/31 09:03:11;;;;;;;0.10;0.10;;;13.00;99.90;;;;;;5027188;28;20576;-88
2022/10/31 09:05:36;;;;;;;0.10;0.10;;;13.10;99.90;;;;;;5004006;28;20243;-89
2022/10/31 09:08:04;;;;;;;0.10;0.10;;;13.10;99.90;;;;;;5017681;28;20568;-88
2022/10/31 09:10:31;;;;;;;0.10;0.10;;;13.10;99.90;;;;;;5019237;28;20878;-89
2022/10/31 09:13:06;;;;;;;0.10;0.10;;;13.00;99.90;;;;;;5008812;28;20566;-90
2022/10/31 09:15:32;;;;;;;0.10;0.10;;;13.20;99.90;;;;;;5014887;28;20444;-94
2022/10/31 09:17:57;;;;;;;0.10;0.10;;;13.10;99.90;;;;;;5012398;28;20438;-93
2022/10/31 09:20:23;;;;;;;0.10;0.10;;;13.10;99.90;;;;;;5007612;28;20436;-90
2022/10/31 09:22:55;;;;;;;0.10;0.10;;;13.20;99.90;;;;;;5010314;28;20202;-94
2022/10/31 09:25:21;;;;;;;0.10;0.10;;;13.30;99.90;;;;;;5017868;28;20445;-95
2022/10/31 09:27:46;;;;;;;0.10;0.10;;;13.30;99.90;;;;;;5012119;28;20845;-91
2022/10/31 09:30:12;;;;;;;0.10;0.10;;;13.40;99.90;;;;;;5003176;28;20229;-92
2022/10/31 09:32:37;;;;;;;0.10;0.10;;;13.30;99.90;;;;;;5029247;28;20200;-93
2022/10/31 09:35:03;;;;;;;0.10;0.10;;;13.30;99.90;;;;;;5023058;28;20184;-95
2022/10/31 09:37:28;;;;;;;0.10;0.10;;;13.10;99.90;;;;;;5019586;28;20194;-92
2022/10/31 09:39:54;;;;;;;0.10;0.10;;;13.20;99.90;;;;;;5010816;28;20199;-92
2022/10/31 09:42:59;;;;;;;0.10;0.10;;;13.20;99.90;;;;;;5021621;28;20510;-91
2022/10/31 09:45:45;;;;;;;0.10;0.10;;;13.30;99.90;;;;;;5021190;28;20179;-91
2022/10/31 09:48:20;;;;;;;0.10;0.10;;;13.40;99.90;;;;;;5006597;28;20443;-91
2022/10/31 09:50:53;;;;;;;0.10;0.10;;;13.40;99.90;;;;;;5015753;28;20452;-88
2022/10/31 09:53:25;;;;;;;0.10;0.10;;;13.40;99.90;;;;;;5024058;28;20939;-92
2022/10/31 09:55:51;;;;;;;0.10;0.10;;;13.40;99.90;;;;;;5018238;28;20442;-92
2022/10/31 09:58:22;;;;;;;0.10;0.10;;;13.40;99.90;;;;;;5007500;28;20942;-91
2022/10/31 10:00:48;;;;;;;0.10;0.10;;;13.50;99.90;;;;;;5025144;28;20476;-91
2022/10/31 10:03:38;;;;;;;0.10;0.10;;;13.40;99.90;;;;;;5024065;28;20542;-91
2022/10/31 10:06:08;;;;;;;0.10;0.10;;;13.60;99.90;;;;;;5018066;28;20208;-91
2022/10/31 10:08:35;;;;;;;0.10;0.10;;;13.70;99.90;;;;;;5021448;28;20475;-92
2022/10/31 10:11:30;;;;;;;0.10;0.10;;;14.00;99.90;;;;;;5013465;28;20442;-91
2022/10/31 10:14:08;;;;;;;0.10;0.10;;;14.20;99.90;;;;;;5024368;28;20542;-93
2022/10/31 10:16:59;;;;;;;0.10;0.10;;;14.00;99.90;;;;;;5010957;28;20533;-90
2022/10/31 10:19:36;;;;;;;0.10;0.10;;;13.90;99.90;;;;;;5020411;28;20438;-89
2022/10/31 10:22:26;;;;;;;0.10;0.10;;;13.80;99.90;;;;;;5004391;28;20492;-92
2022/10/31 10:25:21;;;;;;;0.10;0.10;;;13.90;99.90;;;;;;5024424;28;20498;-92
2022/10/31 10:28:00;;;;;;;0.10;0.10;;;13.90;99.90;;;;;;5027682;28;20489;-91
2022/10/31 10:30:33;;;;;;;0.10;0.10;;;14.20;99.90;;;;;;5005755;28;20461;-90
2022/10/31 10:33:03;;;;;;;0.10;0.10;;;14.40;99.90;;;;;;5010473;28;20533;-90
2022/10/31 10:35:32;;;;;;;0.10;0.10;;;14.30;99.90;;;;;;5024569;28;20463;-90
2022/10/31 10:38:01;;;;;;;0.10;0.10;;;14.40;99.90;;;;;;5011988;28;20960;-90
2022/10/31 10:40:28;;;;;;;0.10;0.10;;;14.40;99.90;;;;;;5039012;28;20442;-91
2022/10/31 10:43:23;;;;;;;0.10;0.10;;;14.40;99.90;;;;;;5026157;28;20450;-90
2022/10/31 10:48:44;;;;;;;0.10;0.10;;;14.30;99.90;;;;;;5014732;28;20461;-92
2022/10/31 10:51:37;;;;;;;0.10;0.10;;;14.20;99.90;;;;;;5029965;28;20564;-91
2022/10/31 10:54:36;;;;;;;0.10;0.10;;;14.20;99.90;;;;;;5030657;28;20534;-90
2022/10/31 10:57:39;;;;;;;0.10;0.10;;;14.30;99.90;;;;;;5011192;28;20443;-90
2022/10/31 11:00:24;;;;;;;0.10;0.10;;;14.30;99.90;;;;;;5009459;28;20450;-91
2022/10/31 11:02:50;;;;;;;0.10;0.10;;;14.40;99.90;;;;;;5014616;28;20446;-90
2022/10/31 11:05:32;;;;;;;0.10;0.10;;;14.40;99.90;;;;;;5008220;28;20485;-92
2022/10/31 11:07:58;;;;;;;0.10;0.10;;;14.40;99.90;;;;;;5020985;28;20561;-90
2022/10/31 11:10:23;;;;;;;0.10;0.10;;;14.40;99.90;;;;;;5017401;28;20518;-92
2022/10/31 11:13:20;;;;;;;0.10;0.10;;;14.50;99.90;;;;;;5022653;28;20184;-91
2022/10/31 11:15:53;;;;;;;0.10;0.10;;;14.50;99.90;;;;;;5020031;28;20261;-88
2022/10/31 11:18:24;;;;;;;0.10;0.10;;;14.50;99.90;;;;;;5012635;28;20504;-94
2022/10/31 11:20:55;;;;;;;0.10;0.10;;;14.60;99.90;;;;;;5028233;28;20441;-90
2022/10/31 11:23:23;;;;;;;0.10;0.10;;;14.60;99.90;;;;;;5014530;28;20914;-90
2022/10/31 11:25:58;;;;;;;0.10;0.10;;;14.70;99.90;;;;;;5025498;28;20470;-91
2022/10/31 11:28:25;;;;;;;0.10;0.10;;;14.80;99.90;;;;;;5027812;28;20921;-91
2022/10/31 11:30:57;;;;;;;0.10;0.10;;;14.80;99.90;;;;;;5024343;28;20954;-92
2022/10/31 11:33:33;;;;;;;0.10;0.10;;;14.70;99.90;;;;;;5029038;28;20446;-92
2022/10/31 11:36:01;;;;;;;0.10;0.10;;;14.70;99.90;;;;;;5015342;28;20480;-92
2022/10/31 11:38:34;;;;;;;0.10;0.10;;;15.00;99.90;;;;;;5020539;28;20489;-90
2022/10/31 11:41:09;;;;;;;0.10;0.10;;;14.90;99.90;;;;;;5019431;28;20426;-94
2022/10/31 11:43:36;;;;;;;0.10;0.10;;;14.90;99.90;;;;;;5029371;28;20523;-92
2022/10/31 11:46:10;;;;;;;0.10;0.10;;;15.10;99.90;;;;;;5036419;28;20466;-87
2022/10/31 11:48:36;;;;;;;0.10;0.10;;;15.20;99.90;;;;;;4996707;28;20546;-91
2022/10/31 11:51:03;;;;;;;0.10;0.10;;;15.50;99.90;;;;;;5034344;28;20438;-91
2022/10/31 11:53:31;;;;;;;0.10;0.10;;;15.80;99.90;;;;;;5030058;28;20529;-94
2022/10/31 11:56:16;;;;;;;0.10;0.10;;;16.70;99.90;;;;;;5013369;28;20504;-91
2022/10/31 11:58:42;;;;;;;0.10;0.10;;;17.20;99.90;;;;;;5029229;28;20434;-96
2022/10/31 12:01:29;;;;;;;0.10;0.00;;;18.10;99.90;;;;;;5031709;28;20800;-91
2022/10/31 12:04:10;;;;;;;0.10;0.00;;;19.00;99.90;;;;;;5027577;28;20495;-95
2022/10/31 12:06:45;;;;;;;0.10;0.00;;;18.00;99.90;;;;;;5012055;28;21063;-92
2022/10/31 12:09:27;;;;;;;0.10;0.00;;;16.90;99.90;;;;;;5021551;28;20445;-91
2022/10/31 12:12:21;;;;;;;0.10;0.10;;;16.60;99.90;;;;;;5005161;28;20447;-94
2022/10/31 12:15:14;;;;;;;0.10;0.10;;;16.20;99.90;;;;;;5040671;28;20471;-93
2022/10/31 12:17:49;;;;;;;0.10;0.10;;;16.00;99.90;;;;;;5010647;28;20764;-93
2022/10/31 12:20:47;;;;;;;0.10;0.10;;;15.90;99.90;;;;;;5035718;28;20528;-93
2022/10/31 12:23:43;;;;;;;0.10;0.10;;;15.80;99.90;;;;;;5005710;28;20918;-95
2022/10/31 12:26:18;;;;;;;0.10;0.10;;;16.80;99.90;;;;;;5002405;28;20549;-92
2022/10/31 12:29:00;;;;;;;0.10;0.00;;;18.60;99.90;;;;;;5027910;28;20811;-94
2022/10/31 12:31:34;;;;;;;0.10;0.00;;;19.10;99.90;;;;;;5018652;28;20473;-95
2022/10/31 12:34:07;;;;;;;0.10;0.00;;;19.90;99.90;;;;;;5012870;28;20459;-81
2022/10/31 12:39:19;;;;;;;0.10;0.10;;;18.60;99.90;;;;;;5055965;23;20636;-92
2022/10/31 12:41:57;;;;;;;0.10;0.00;;;17.60;99.90;;;;;;4997892;28;20267;-94
2022/10/31 12:44:37;;;;;;;0.10;0.10;;;17.10;99.90;;;;;;5021322;28;20449;-92
2022/10/31 12:47:28;;;;;;;0.10;0.10;;;16.60;99.90;;;;;;5006744;28;20481;-88
2022/10/31 12:50:16;;;;;;;0.10;0.10;;;16.30;99.90;;;;;;5008666;28;20441;-94
2022/10/31 12:52:48;;;;;;;0.10;0.10;;;16.30;99.90;;;;;;5007910;28;20532;-92
2022/10/31 12:55:28;;;;;;;0.10;0.10;;;16.20;99.90;;;;;;5027415;28;20442;-94
2022/10/31 12:58:01;;;;;;;0.10;0.10;;;16.20;99.90;;;;;;5012787;28;20786;-92
2022/10/31 13:00:29;;;;;;;0.10;0.10;;;16.10;99.90;;;;;;5021358;28;20938;-95
2022/10/31 13:03:22;;;;;;;0.10;0.10;;;16.10;99.90;;;;;;5019297;28;20545;-91
2022/10/31 13:05:56;;;;;;;0.10;0.10;;;15.80;99.90;;;;;;5008701;28;20566;-94
2022/10/31 13:08:36;;;;;;;0.10;0.10;;;15.80;99.90;;;;;;5014943;28;20430;-93
2022/10/31 13:11:18;;;;;;;0.10;0.10;;;16.10;99.90;;;;;;5016806;28;20452;-95
2022/10/31 13:14:11;;;;;;;0.10;0.10;;;17.00;99.90;;;;;;5012394;28;20911;-95